Rhineland, Missouri
Current Conditions -  °F | °C
As of 5:35 PM on Saturday 20 Dec 2014 (Local Time) from KFYG Reporting Station
Overcast Overcast  
Wind Chill: 41°   Ceiling: 2900
Heat Index: 41°   Visibility: 10mi
Dew Point: 36°   Wind: 3mph
Humidity: 81%   Direction: 120°ESE
Pressure: 30.22"   Gusts: NA
Location:  38.72°N, 91.52°W
Report Text: KFYG 202335Z AUTO 12003KT 10SM OVC029 05/02 A3022 RMK AO2
Loading
Personal Weather Stations






























Interactive Weather Map New forecast layout! Learn more

10-Day Weather Forecast

Advertisements
Track Severe Weather on mobile